Time;durP1;ratioP1;P1;durP2;ratioP2;P2;SDS_P1;SDS_P2;PMS_P1;PMS_P2;Temp;Humidity;BMP_temperature;BMP_pressure;BME280_temperature;BME280_humidity;BME280_pressure;Samples;Min_cycle;Max_cycle;Signal;HPM_P1;HPM_P2
2021/12/20 00:01:39;;;;;;;15.73;3.85;;;14.70;69.20;;;;;;4651600;30;20071;-73
2021/12/20 00:04:05;;;;;;;16.10;3.78;;;14.70;69.10;;;;;;4651659;30;20051;-74
2021/12/20 00:06:31;;;;;;;15.10;3.53;;;14.70;69.00;;;;;;4651576;30;20078;-74
2021/12/20 00:08:56;;;;;;;12.20;3.58;;;14.70;69.40;;;;;;4651349;30;20461;-72
2021/12/20 00:11:22;;;;;;;16.92;3.45;;;14.70;69.40;;;;;;4650682;30;20069;-73
2021/12/20 00:13:48;;;;;;;19.35;3.45;;;14.70;68.80;;;;;;4652016;30;20132;-72
2021/12/20 00:16:14;;;;;;;16.73;4.03;;;14.70;68.90;;;;;;4636648;30;20090;-74
2021/12/20 00:18:42;;;;;;;14.52;3.65;;;14.70;69.20;;;;;;4651260;30;20059;-73
2021/12/20 00:21:08;;;;;;;13.82;3.20;;;14.70;68.80;;;;;;4650799;30;20062;-72
2021/12/20 00:23:34;;;;;;;13.80;2.88;;;14.70;69.00;;;;;;4651589;30;20437;-72
2021/12/20 00:26:00;;;;;;;14.13;3.42;;;14.70;69.00;;;;;;4635677;30;20130;-72
2021/12/20 00:28:26;;;;;;;14.80;2.88;;;14.70;69.00;;;;;;4650485;30;20145;-74
2021/12/20 00:30:51;;;;;;;14.80;3.20;;;14.70;68.90;;;;;;4635836;30;20369;-73
2021/12/20 00:33:17;;;;;;;13.63;2.88;;;14.70;68.70;;;;;;4651725;30;20054;-72
2021/12/20 00:35:44;;;;;;;17.77;3.47;;;14.70;68.50;;;;;;4650650;30;20413;-73
2021/12/20 00:40:54;;;;;;;16.15;3.10;;;14.60;68.60;;;;;;4650818;30;20055;-72
2021/12/20 00:43:20;;;;;;;13.13;3.25;;;14.60;68.50;;;;;;4651143;30;20059;-74
2021/12/20 00:45:46;;;;;;;12.60;3.40;;;14.60;68.50;;;;;;4650653;30;20054;-72
2021/12/20 00:48:11;;;;;;;14.40;2.85;;;14.60;68.50;;;;;;4636522;30;20069;-73
2021/12/20 00:50:40;;;;;;;13.73;2.40;;;14.60;68.00;;;;;;4650282;30;20047;-74
2021/12/20 00:53:06;;;;;;;11.40;2.83;;;14.60;68.50;;;;;;4635875;30;20098;-72
2021/12/20 00:55:31;;;;;;;17.88;3.70;;;14.60;68.30;;;;;;4635649;30;20051;-74
2021/12/20 00:57:58;;;;;;;12.60;2.83;;;14.60;68.90;;;;;;4650515;30;20471;-74
2021/12/20 01:00:32;;;;;;;11.13;2.92;;;14.60;68.40;;;;;;4635373;30;20074;-73
2021/12/20 01:02:59;;;;;;;11.00;2.33;;;14.60;68.20;;;;;;4635526;30;20067;-73
2021/12/20 01:05:26;;;;;;;9.02;2.78;;;14.60;68.70;;;;;;4635804;30;20457;-74
2021/12/20 01:07:55;;;;;;;12.52;3.25;;;14.60;67.90;;;;;;4650713;30;20050;-74
2021/12/20 01:10:21;;;;;;;20.30;3.40;;;14.60;68.00;;;;;;4650682;30;20065;-72
2021/12/20 01:12:50;;;;;;;11.57;3.10;;;14.60;68.10;;;;;;4635877;30;20051;-73
2021/12/20 01:15:20;;;;;;;17.10;3.45;;;14.60;68.20;;;;;;4635761;30;20054;-72
2021/12/20 01:17:46;;;;;;;9.27;2.70;;;14.60;67.80;;;;;;4650715;30;20051;-72
2021/12/20 01:20:13;;;;;;;13.93;3.47;;;14.50;67.80;;;;;;4649561;30;20122;-73
2021/12/20 01:22:41;;;;;;;17.27;3.30;;;14.60;68.00;;;;;;4650924;30;20054;-73
2021/12/20 01:25:08;;;;;;;11.48;2.67;;;14.60;68.00;;;;;;4650250;30;20059;-74
2021/12/20 01:27:34;;;;;;;13.57;2.45;;;14.60;67.90;;;;;;4650917;30;20424;-72
2021/12/20 01:30:00;;;;;;;11.48;2.92;;;14.60;67.80;;;;;;4650481;30;20070;-72
2021/12/20 01:32:25;;;;;;;13.95;3.50;;;14.50;67.90;;;;;;4651462;30;20050;-74
2021/12/20 01:34:51;;;;;;;16.40;3.35;;;14.50;67.90;;;;;;4653912;30;20091;-73
2021/12/20 01:37:17;;;;;;;15.23;3.40;;;14.50;67.90;;;;;;4654024;30;20059;-72
2021/12/20 01:39:43;;;;;;;12.30;3.13;;;14.50;67.70;;;;;;4654068;30;20058;-73
2021/12/20 01:42:09;;;;;;;9.35;2.45;;;14.50;67.90;;;;;;4653924;30;20055;-74
2021/12/20 01:44:36;;;;;;;13.80;2.75;;;14.50;67.80;;;;;;4639261;30;20380;-73
2021/12/20 01:47:04;;;;;;;14.13;3.30;;;14.50;67.80;;;;;;4653767;30;20078;-73
2021/12/20 01:49:33;;;;;;;13.98;3.28;;;14.50;67.70;;;;;;4653651;30;20058;-74
2021/12/20 01:52:10;;;;;;;13.93;2.47;;;14.50;67.70;;;;;;4638934;30;20055;-73
2021/12/20 01:54:36;;;;;;;10.63;2.65;;;14.50;67.70;;;;;;4639308;30;20355;-73
2021/12/20 01:57:02;;;;;;;14.32;2.35;;;14.40;67.50;;;;;;4638690;30;20055;-74
2021/12/20 01:59:28;;;;;;;6.90;2.00;;;14.40;67.80;;;;;;4652817;30;20428;-74
2021/12/20 02:01:54;;;;;;;10.82;2.72;;;14.40;67.80;;;;;;4638512;30;20107;-72
2021/12/20 02:04:21;;;;;;;8.73;2.42;;;14.30;67.10;;;;;;4653679;30;20089;-72
2021/12/20 02:06:48;;;;;;;11.27;2.72;;;14.30;67.50;;;;;;4653693;30;20054;-73
2021/12/20 02:09:19;;;;;;;13.20;2.90;;;14.30;67.60;;;;;;4637916;30;20059;-73
2021/12/20 02:11:47;;;;;;;8.88;2.15;;;14.30;67.40;;;;;;4653091;30;20097;-73
2021/12/20 02:14:14;;;;;;;12.55;2.45;;;14.30;67.50;;;;;;4638219;30;20062;-72
2021/12/20 02:16:41;;;;;;;12.85;2.42;;;14.30;67.60;;;;;;4653948;30;20051;-73
2021/12/20 02:19:13;;;;;;;10.95;2.63;;;14.30;67.60;;;;;;4652802;30;20130;-75
2021/12/20 02:21:40;;;;;;;7.28;1.65;;;14.30;67.40;;;;;;4647276;30;20129;-74
2021/12/20 02:24:06;;;;;;;8.65;1.92;;;14.30;67.70;;;;;;4637884;30;20112;-73
2021/12/20 02:26:33;;;;;;;10.90;2.20;;;14.30;67.50;;;;;;4653407;30;20070;-74
2021/12/20 02:29:04;;;;;;;12.70;2.72;;;14.30;67.50;;;;;;4653070;30;20066;-72
2021/12/20 02:37:26;;;;;;;;;;;14.30;67.40;;;;;;4638681;30;20375;-74
2021/12/20 02:39:46;;;;;;;7.07;2.05;;;14.30;66.60;;;;;;4652190;30;19928;-73
2021/12/20 02:42:16;;;;;;;9.80;1.92;;;14.30;67.10;;;;;;4651949;30;20063;-74
2021/12/20 02:44:59;;;;;;;14.88;2.17;;;14.20;66.90;;;;;;4651728;30;20069;-73
2021/12/20 02:47:29;;;;;;;9.98;1.98;;;14.20;66.70;;;;;;4652648;30;20054;-74
2021/12/20 02:49:56;;;;;;;7.63;1.98;;;14.20;66.50;;;;;;4652783;30;20102;-72
2021/12/20 02:52:22;;;;;;;8.38;2.10;;;14.10;66.60;;;;;;4665872;30;20373;-72
2021/12/20 02:54:48;;;;;;;10.70;1.90;;;14.10;66.70;;;;;;4665899;30;20055;-72
2021/12/20 02:57:13;;;;;;;7.15;1.20;;;14.10;66.40;;;;;;4637304;30;20105;-73
2021/12/20 02:59:39;;;;;;;9.88;2.28;;;14.10;66.70;;;;;;4652554;30;20117;-74
2021/12/20 03:02:08;;;;;;;8.30;1.80;;;14.10;66.70;;;;;;4637658;30;20062;-72
2021/12/20 03:04:34;;;;;;;7.28;1.83;;;14.10;66.50;;;;;;4666011;30;20146;-72
2021/12/20 03:07:04;;;;;;;7.15;1.60;;;14.00;66.50;;;;;;4652596;30;20062;-72
2021/12/20 03:09:35;;;;;;;8.05;1.60;;;14.00;66.40;;;;;;4652419;30;20063;-73
2021/12/20 03:12:02;;;;;;;11.70;1.80;;;14.00;66.10;;;;;;4652219;30;20147;-74
2021/12/20 03:14:35;;;;;;;7.97;1.65;;;13.90;66.20;;;;;;4652281;30;20051;-72
2021/12/20 03:17:01;;;;;;;8.20;1.70;;;13.90;66.50;;;;;;4652520;30;20377;-71
2021/12/20 03:19:28;;;;;;;8.45;1.42;;;13.90;65.60;;;;;;4652172;30;20059;-74
2021/12/20 03:21:54;;;;;;;10.15;1.80;;;13.80;65.50;;;;;;4652012;30;20069;-73
2021/12/20 03:24:21;;;;;;;9.52;1.83;;;13.80;65.90;;;;;;4652445;30;20449;-73
2021/12/20 03:26:47;;;;;;;7.35;1.65;;;13.80;65.60;;;;;;4651571;30;20059;-73
2021/12/20 03:29:13;;;;;;;8.10;1.30;;;13.80;66.00;;;;;;4652176;30;20499;-72
2021/12/20 03:31:39;;;;;;;5.13;1.10;;;13.80;65.90;;;;;;4650857;30;20070;-72
2021/12/20 03:34:06;;;;;;;5.93;1.30;;;13.70;65.60;;;;;;4637299;30;20156;-72
2021/12/20 03:36:33;;;;;;;4.05;1.20;;;13.60;65.40;;;;;;4637453;30;20126;-72
2021/12/20 03:38:59;;;;;;;7.15;1.60;;;13.60;65.60;;;;;;4637250;30;20054;-72
2021/12/20 03:41:25;;;;;;;8.55;1.67;;;13.70;66.20;;;;;;4637485;30;20085;-74
2021/12/20 03:43:51;;;;;;;6.20;1.25;;;13.70;66.40;;;;;;4651790;30;20456;-72
2021/12/20 03:46:17;;;;;;;7.38;1.20;;;13.70;66.40;;;;;;4652052;30;20072;-74
2021/12/20 03:48:43;;;;;;;4.35;1.20;;;13.70;66.60;;;;;;4651826;30;20457;-74
2021/12/20 03:51:09;;;;;;;7.20;1.20;;;13.70;66.70;;;;;;4651945;30;20066;-72
2021/12/20 03:53:35;;;;;;;8.85;1.45;;;13.70;66.50;;;;;;4651644;30;20065;-73
2021/12/20 03:56:03;;;;;;;6.47;1.15;;;13.80;66.20;;;;;;4651049;30;20047;-73
2021/12/20 03:58:30;;;;;;;6.50;1.02;;;13.80;66.30;;;;;;4651792;30;20066;-74
2021/12/20 04:00:59;;;;;;;5.38;1.08;;;13.80;66.60;;;;;;4651609;30;20152;-72
2021/12/20 04:03:25;;;;;;;6.68;0.93;;;13.80;66.50;;;;;;4636569;30;20070;-72
2021/12/20 04:05:52;;;;;;;5.82;1.25;;;13.80;66.40;;;;;;4651835;30;20054;-72
2021/12/20 04:08:18;;;;;;;6.82;1.17;;;13.90;66.60;;;;;;4651432;30;20137;-73
2021/12/20 04:10:43;;;;;;;6.40;1.10;;;13.80;66.80;;;;;;4636310;30;20138;-73
2021/12/20 04:13:10;;;;;;;2.58;0.63;;;13.80;65.80;;;;;;4651765;30;20061;-72
2021/12/20 04:15:36;;;;;;;4.75;1.00;;;13.80;65.80;;;;;;4636149;30;20054;-73
2021/12/20 04:18:03;;;;;;;5.53;0.75;;;13.80;65.70;;;;;;4651298;30;20448;-72
2021/12/20 04:20:29;;;;;;;4.93;1.20;;;13.70;65.70;;;;;;4650918;30;20373;-74
2021/12/20 04:22:55;;;;;;;5.20;1.02;;;13.80;66.10;;;;;;4636308;30;20062;-73
2021/12/20 04:25:20;;;;;;;6.68;1.15;;;13.80;66.10;;;;;;4649848;30;20066;-74
2021/12/20 04:27:46;;;;;;;8.15;1.10;;;13.80;65.90;;;;;;4651391;30;20065;-72
2021/12/20 04:30:12;;;;;;;5.15;0.88;;;13.80;65.70;;;;;;4636089;30;20055;-73
2021/12/20 04:32:40;;;;;;;4.75;0.88;;;13.90;65.90;;;;;;4650885;30;20059;-74
2021/12/20 04:35:07;;;;;;;3.63;0.85;;;13.90;65.90;;;;;;4650609;30;20427;-74
2021/12/20 04:37:33;;;;;;;6.45;1.45;;;13.90;65.70;;;;;;4635963;30;20078;-73
2021/12/20 04:40:00;;;;;;;4.68;1.15;;;13.90;65.80;;;;;;4651012;30;20055;-73
2021/12/20 04:42:25;;;;;;;5.13;0.80;;;13.90;65.70;;;;;;4650527;30;20078;-72
2021/12/20 04:44:51;;;;;;;5.43;0.90;;;13.90;65.60;;;;;;4650487;30;20480;-72
2021/12/20 04:47:17;;;;;;;3.20;0.70;;;13.90;66.10;;;;;;4645534;30;20066;-72
2021/12/20 04:49:43;;;;;;;4.85;1.17;;;13.90;65.20;;;;;;4647203;30;20065;-73
2021/12/20 04:52:08;;;;;;;4.35;0.73;;;13.90;65.60;;;;;;4650387;30;20055;-72
2021/12/20 04:54:34;;;;;;;5.30;0.85;;;13.90;65.30;;;;;;4635788;30;20094;-74
2021/12/20 04:57:00;;;;;;;4.15;1.00;;;13.90;65.10;;;;;;4650385;30;20138;-71
2021/12/20 04:59:25;;;;;;;4.35;0.88;;;13.90;65.10;;;;;;4649903;30;20055;-73
2021/12/20 05:01:51;;;;;;;5.50;0.90;;;13.90;65.10;;;;;;4650502;30;20500;-74
2021/12/20 05:04:17;;;;;;;4.90;1.10;;;13.90;65.00;;;;;;4650466;30;20134;-74
2021/12/20 05:06:42;;;;;;;2.38;0.38;;;13.80;65.00;;;;;;4634483;30;20594;-73
2021/12/20 05:09:08;;;;;;;4.93;0.82;;;13.80;65.70;;;;;;4632419;30;20138;-72
2021/12/20 05:11:34;;;;;;;4.03;0.70;;;13.80;65.20;;;;;;4634820;30;20054;-74
2021/12/20 05:14:01;;;;;;;3.03;0.52;;;13.80;65.30;;;;;;4649939;30;20373;-72
2021/12/20 05:16:27;;;;;;;4.47;0.80;;;13.80;65.30;;;;;;4634907;30;20354;-73
2021/12/20 05:18:53;;;;;;;2.63;0.52;;;13.80;65.40;;;;;;4624729;30;20069;-73
2021/12/20 05:21:19;;;;;;;5.03;0.88;;;13.80;65.40;;;;;;4640432;30;20114;-74
2021/12/20 05:23:45;;;;;;;2.97;0.57;;;13.80;65.20;;;;;;4643612;30;20058;-74
2021/12/20 05:26:10;;;;;;;4.70;0.80;;;13.80;65.20;;;;;;4655704;30;20137;-72
2021/12/20 05:28:36;;;;;;;3.95;0.60;;;13.70;65.20;;;;;;4649885;30;20047;-72
2021/12/20 05:31:02;;;;;;;3.80;0.82;;;13.70;65.10;;;;;;4649969;30;20069;-72
2021/12/20 05:33:28;;;;;;;2.75;0.50;;;13.70;65.30;;;;;;4647431;30;20069;-72
2021/12/20 05:35:54;;;;;;;4.13;0.60;;;13.70;65.40;;;;;;4628737;30;20101;-74
2021/12/20 05:38:20;;;;;;;3.10;0.55;;;13.70;65.30;;;;;;4649995;30;20461;-74
2021/12/20 05:40:46;;;;;;;3.90;1.02;;;13.80;65.40;;;;;;4649735;30;20134;-73
2021/12/20 05:43:12;;;;;;;5.15;0.82;;;13.70;65.40;;;;;;4650051;30;20055;-73
2021/12/20 05:45:37;;;;;;;4.20;0.80;;;13.80;65.30;;;;;;4635111;30;20071;-73
2021/12/20 05:48:04;;;;;;;5.60;1.00;;;13.80;65.20;;;;;;4634894;30;20441;-73
2021/12/20 05:50:32;;;;;;;2.42;0.77;;;13.80;65.20;;;;;;4632052;30;20142;-74
2021/12/20 05:52:58;;;;;;;8.43;1.27;;;13.80;65.00;;;;;;4634574;30;20134;-74
2021/12/20 05:55:24;;;;;;;9.00;0.95;;;13.80;64.70;;;;;;4644954;30;20067;-69
2021/12/20 05:57:50;;;;;;;8.45;1.40;;;13.90;64.90;;;;;;4649047;30;20441;-71
2021/12/20 06:00:18;;;;;;;6.47;0.82;;;13.90;64.50;;;;;;4642968;30;20059;-71
2021/12/20 06:02:46;;;;;;;7.85;1.08;;;13.90;64.10;;;;;;4644925;30;21448;-72
2021/12/20 06:05:12;;;;;;;9.32;0.90;;;13.90;63.80;;;;;;4633381;30;20065;-70
2021/12/20 06:07:41;;;;;;;6.35;0.88;;;13.90;63.40;;;;;;4628516;30;20055;-73
2021/12/20 06:10:10;;;;;;;6.88;1.10;;;13.90;63.20;;;;;;4635076;30;20098;-72
2021/12/20 06:12:36;;;;;;;5.00;1.25;;;14.00;63.50;;;;;;4635049;30;20133;-72
2021/12/20 06:15:05;;;;;;;5.38;1.13;;;13.90;65.20;;;;;;4649806;30;20135;-72
2021/12/20 06:17:31;;;;;;;3.83;0.63;;;13.90;67.80;;;;;;4647202;30;20369;-73
2021/12/20 06:19:57;;;;;;;4.22;0.82;;;14.10;66.60;;;;;;4651157;30;20093;-72
2021/12/20 06:22:23;;;;;;;5.32;1.23;;;14.30;64.90;;;;;;4637327;30;20090;-74
2021/12/20 06:24:48;;;;;;;5.75;1.27;;;14.60;62.20;;;;;;4652787;30;20151;-73
2021/12/20 06:27:14;;;;;;;4.55;1.10;;;14.90;64.30;;;;;;4653002;30;20062;-73
2021/12/20 06:29:40;;;;;;;5.20;1.00;;;15.10;64.30;;;;;;4658064;30;20062;-72
2021/12/20 06:32:06;;;;;;;5.40;0.90;;;15.30;64.40;;;;;;4652701;30;20063;-70
2021/12/20 06:34:32;;;;;;;6.82;1.13;;;15.50;64.30;;;;;;4652918;30;20217;-74
2021/12/20 06:36:58;;;;;;;8.05;0.80;;;15.50;64.80;;;;;;4653057;30;20149;-71
2021/12/20 06:39:24;;;;;;;5.38;0.73;;;15.60;64.60;;;;;;4638441;30;20073;-73
2021/12/20 06:41:50;;;;;;;6.55;0.93;;;15.60;64.70;;;;;;4642617;30;20063;-70
2021/12/20 06:44:17;;;;;;;7.65;1.52;;;15.60;65.50;;;;;;4635345;31;20373;-73
2021/12/20 06:46:43;;;;;;;7.68;1.52;;;15.70;66.00;;;;;;4635155;30;20146;-74
2021/12/20 06:49:12;;;;;;;8.02;1.10;;;15.70;67.10;;;;;;4643895;30;20051;-71
2021/12/20 06:51:42;;;;;;;9.98;1.45;;;15.70;67.10;;;;;;4648867;30;20353;-73
2021/12/20 06:54:15;;;;;;;5.60;1.05;;;15.70;67.40;;;;;;4645296;30;20059;-72
2021/12/20 06:56:42;;;;;;;7.68;1.20;;;15.70;68.00;;;;;;4651750;30;20058;-68
2021/12/20 06:59:08;;;;;;;7.20;1.42;;;15.80;68.30;;;;;;4651572;30;20129;-71
2021/12/20 07:01:34;;;;;;;10.23;1.15;;;15.80;68.30;;;;;;4648393;30;20154;-74
2021/12/20 07:04:01;;;;;;;10.63;1.20;;;15.80;68.50;;;;;;4651539;30;20063;-74
2021/12/20 07:06:28;;;;;;;3.65;0.95;;;15.80;68.50;;;;;;4646285;30;20137;-73
2021/12/20 07:08:54;;;;;;;9.77;1.15;;;15.90;68.60;;;;;;4637684;30;20059;-73
2021/12/20 07:11:20;;;;;;;15.02;1.52;;;15.90;68.60;;;;;;4652104;30;20475;-73
2021/12/20 07:13:46;;;;;;;6.65;1.08;;;15.90;68.70;;;;;;4651927;30;20042;-76
2021/12/20 07:16:13;;;;;;;6.20;1.30;;;16.00;68.80;;;;;;4637496;30;20073;-74
2021/12/20 07:18:39;;;;;;;8.15;1.05;;;16.10;68.80;;;;;;4652899;30;20357;-76
2021/12/20 07:21:04;;;;;;;6.60;1.23;;;16.20;68.70;;;;;;4636950;30;20054;-73
2021/12/20 07:23:30;;;;;;;7.20;1.30;;;16.30;68.50;;;;;;4652123;30;20146;-73
2021/12/20 07:25:56;;;;;;;11.95;1.70;;;16.30;69.10;;;;;;4649381;30;20055;-72
2021/12/20 07:28:22;;;;;;;17.40;1.90;;;16.30;68.20;;;;;;4648663;30;20078;-75
2021/12/20 07:30:49;;;;;;;11.32;1.10;;;16.30;68.40;;;;;;4619541;31;20377;-75
2021/12/20 07:33:15;;;;;;;12.60;1.52;;;16.40;68.50;;;;;;4640478;30;20529;-75
2021/12/20 07:35:44;;;;;;;11.10;2.15;;;16.40;68.40;;;;;;4651736;30;20066;-76
2021/12/20 07:38:13;;;;;;;13.55;1.83;;;16.50;68.10;;;;;;4637327;30;20468;-76
2021/12/20 07:40:42;;;;;;;10.07;2.20;;;16.60;68.20;;;;;;4651782;30;20083;-76
2021/12/20 07:43:09;;;;;;;19.85;2.22;;;16.60;68.00;;;;;;4652343;30;20139;-75
2021/12/20 07:45:35;;;;;;;18.05;2.15;;;16.60;67.90;;;;;;4651783;30;20172;-73
2021/12/20 07:48:01;;;;;;;17.00;1.73;;;16.60;68.00;;;;;;4636788;30;20059;-78
2021/12/20 07:50:27;;;;;;;13.60;1.30;;;16.60;68.10;;;;;;4651722;30;20062;-71
2021/12/20 07:52:53;;;;;;;11.52;1.25;;;16.50;68.70;;;;;;4648100;30;20069;-75
2021/12/20 07:55:18;;;;;;;8.13;1.65;;;16.40;68.00;;;;;;4649677;30;20059;-76
2021/12/20 07:57:44;;;;;;;6.70;1.42;;;16.40;65.90;;;;;;4642242;30;20052;-77
2021/12/20 08:00:11;;;;;;;15.30;1.70;;;16.30;64.60;;;;;;4635729;30;20499;-75
2021/12/20 08:02:37;;;;;;;11.77;1.60;;;16.20;64.10;;;;;;4651017;30;20062;-73
2021/12/20 08:05:03;;;;;;;13.13;1.85;;;16.10;64.20;;;;;;4636235;30;20075;-73
2021/12/20 08:07:29;;;;;;;13.85;1.63;;;16.10;64.70;;;;;;4652172;30;20369;-73
2021/12/20 08:09:55;;;;;;;8.05;1.40;;;16.10;64.90;;;;;;4650502;30;20061;-73
2021/12/20 08:12:21;;;;;;;10.40;1.55;;;16.00;64.80;;;;;;4640720;30;20069;-75
2021/12/20 08:14:47;;;;;;;11.82;1.63;;;16.00;64.60;;;;;;4634236;31;20441;-75
2021/12/20 08:17:12;;;;;;;13.23;1.90;;;16.00;64.70;;;;;;4628189;30;20093;-70
2021/12/20 08:19:38;;;;;;;16.33;2.55;;;16.00;64.60;;;;;;4651550;30;20054;-75
2021/12/20 08:22:05;;;;;;;16.83;1.90;;;15.90;64.60;;;;;;4651570;30;20122;-74
2021/12/20 08:24:31;;;;;;;11.70;1.77;;;15.90;64.20;;;;;;4651479;30;20051;-75
2021/12/20 08:26:57;;;;;;;14.43;2.03;;;15.80;63.40;;;;;;4650865;30;20482;-74
2021/12/20 08:29:24;;;;;;;7.85;1.42;;;15.70;63.00;;;;;;4651251;30;20062;-74
2021/12/20 08:31:52;;;;;;;12.90;1.63;;;15.70;63.10;;;;;;4650617;30;20376;-74
2021/12/20 08:34:18;;;;;;;9.00;1.42;;;15.60;63.10;;;;;;4650411;30;20137;-73
2021/12/20 08:36:44;;;;;;;10.57;1.45;;;15.50;63.30;;;;;;4651375;30;20063;-75
2021/12/20 08:39:15;;;;;;;11.15;2.03;;;15.50;63.60;;;;;;4651914;30;20481;-73
2021/12/20 08:41:41;;;;;;;8.68;1.40;;;15.40;63.70;;;;;;4650824;30;20062;-75
2021/12/20 08:44:06;;;;;;;10.98;1.65;;;15.40;64.60;;;;;;4650968;30;20054;-74
2021/12/20 08:46:32;;;;;;;7.22;1.20;;;15.40;64.10;;;;;;4651526;30;20070;-73
2021/12/20 08:48:58;;;;;;;6.75;1.50;;;15.30;64.30;;;;;;4650882;30;20046;-73
2021/12/20 08:51:25;;;;;;;5.97;1.15;;;15.30;64.40;;;;;;4635946;30;20066;-74
2021/12/20 08:53:51;;;;;;;9.48;1.52;;;15.30;64.60;;;;;;4650920;30;20497;-74
2021/12/20 08:56:17;;;;;;;7.38;1.00;;;15.30;64.60;;;;;;4635762;30;20156;-74
2021/12/20 08:58:44;;;;;;;4.82;1.48;;;15.30;64.50;;;;;;4651086;30;20081;-74
2021/12/20 09:01:10;;;;;;;6.85;1.40;;;15.30;64.90;;;;;;4650566;30;20067;-73
2021/12/20 09:03:36;;;;;;;4.93;1.17;;;15.30;64.80;;;;;;4650237;30;20129;-74
2021/12/20 09:06:02;;;;;;;8.15;1.40;;;15.30;64.80;;;;;;4651306;30;20438;-74
2021/12/20 09:08:29;;;;;;;7.43;1.23;;;15.30;65.00;;;;;;4650452;30;20066;-75
2021/12/20 09:10:54;;;;;;;7.18;1.38;;;15.20;64.90;;;;;;4636441;30;20055;-76
2021/12/20 09:13:20;;;;;;;5.57;0.98;;;15.30;65.00;;;;;;4650469;30;20376;-72
2021/12/20 09:15:46;;;;;;;6.63;1.50;;;15.20;65.10;;;;;;4650876;30;20050;-74
2021/12/20 09:18:12;;;;;;;5.07;1.17;;;15.20;65.20;;;;;;4636017;30;20065;-73
2021/12/20 09:20:38;;;;;;;8.48;1.17;;;15.20;65.30;;;;;;4651243;30;20058;-73
2021/12/20 09:23:07;;;;;;;5.03;1.23;;;15.20;65.40;;;;;;4650463;30;20063;-74
2021/12/20 09:25:35;;;;;;;4.70;0.90;;;15.10;65.50;;;;;;4650808;30;20087;-74
2021/12/20 09:28:04;;;;;;;3.45;0.98;;;15.10;65.60;;;;;;4636195;30;20453;-74
2021/12/20 09:30:31;;;;;;;6.05;1.00;;;15.10;65.70;;;;;;4650639;30;20109;-73
2021/12/20 09:32:57;;;;;;;8.95;1.60;;;15.10;65.70;;;;;;4650139;30;20138;-74
2021/12/20 09:35:23;;;;;;;5.35;1.00;;;15.10;65.80;;;;;;4621663;30;20058;-73
2021/12/20 09:37:51;;;;;;;6.95;1.42;;;15.10;65.90;;;;;;4650461;30;20059;-75
2021/12/20 09:40:26;;;;;;;5.78;1.17;;;15.00;65.90;;;;;;4635976;30;20070;-74
2021/12/20 09:42:54;;;;;;;4.68;1.13;;;15.00;65.90;;;;;;4650471;30;20059;-74
2021/12/20 09:45:21;;;;;;;5.47;1.05;;;15.00;65.90;;;;;;4650989;30;20059;-76
2021/12/20 09:47:48;;;;;;;2.13;0.75;;;15.00;66.00;;;;;;4635375;30;20130;-74
2021/12/20 09:50:15;;;;;;;4.00;1.10;;;15.00;66.00;;;;;;4650184;30;20479;-75
2021/12/20 09:52:42;;;;;;;3.63;1.00;;;15.00;66.00;;;;;;4635460;30;20468;-75
2021/12/20 09:55:09;;;;;;;8.57;1.42;;;15.00;66.10;;;;;;4653931;30;20073;-75
2021/12/20 09:57:36;;;;;;;4.82;1.00;;;15.00;66.10;;;;;;4638927;30;20469;-74
2021/12/20 10:00:07;;;;;;;4.40;1.17;;;15.00;66.20;;;;;;4652535;30;20058;-75
2021/12/20 10:02:33;;;;;;;6.70;1.30;;;15.00;66.20;;;;;;4653626;30;20408;-72
2021/12/20 10:04:59;;;;;;;3.45;1.00;;;15.00;66.20;;;;;;4638857;30;20059;-74
2021/12/20 10:07:26;;;;;;;4.05;1.23;;;15.00;66.20;;;;;;4653562;30;20062;-74
2021/12/20 10:09:52;;;;;;;4.25;1.27;;;15.00;66.30;;;;;;4653218;30;20062;-73
2021/12/20 10:12:24;;;;;;;3.53;1.20;;;14.90;66.30;;;;;;4638863;30;20065;-75
2021/12/20 10:15:03;;;;;;;4.43;1.63;;;14.90;66.40;;;;;;4653417;30;20143;-75
2021/12/20 10:17:34;;;;;;;4.28;1.15;;;14.90;66.50;;;;;;4653168;30;20138;-74
2021/12/20 10:20:15;;;;;;;4.25;1.05;;;14.90;66.60;;;;;;4653542;30;20090;-74
2021/12/20 10:22:42;;;;;;;3.20;1.05;;;14.90;66.70;;;;;;4653485;30;20061;-75
2021/12/20 10:25:29;;;;;;;6.25;1.38;;;14.90;66.80;;;;;;4653431;30;20066;-74
2021/12/20 10:28:08;;;;;;;3.92;1.20;;;14.90;66.80;;;;;;4637819;30;20129;-73
2021/12/20 10:30:38;;;;;;;3.05;1.00;;;14.90;66.90;;;;;;4638525;30;20071;-74
2021/12/20 10:33:04;;;;;;;6.70;1.58;;;14.90;67.00;;;;;;4652774;30;20062;-74
2021/12/20 10:35:33;;;;;;;3.95;1.10;;;14.90;67.00;;;;;;4638515;30;20436;-75
2021/12/20 10:38:03;;;;;;;3.40;1.05;;;14.90;67.10;;;;;;4638020;30;20066;-74
2021/12/20 10:40:29;;;;;;;2.28;1.23;;;14.90;67.20;;;;;;4652879;30;20077;-74
2021/12/20 10:42:57;;;;;;;2.92;1.00;;;14.90;67.20;;;;;;4637917;30;20055;-73
2021/12/20 10:45:25;;;;;;;4.60;1.60;;;14.90;67.30;;;;;;4638163;30;20448;-76
2021/12/20 10:47:51;;;;;;;4.03;1.13;;;14.90;67.30;;;;;;4652917;30;20051;-73
2021/12/20 10:50:29;;;;;;;4.28;1.23;;;14.90;67.30;;;;;;4652961;30;20098;-74
2021/12/20 10:53:12;;;;;;;5.28;1.50;;;14.90;67.30;;;;;;4637891;30;20067;-74
2021/12/20 10:55:44;;;;;;;3.28;0.90;;;14.90;67.30;;;;;;4638572;30;20055;-73
2021/12/20 10:58:28;;;;;;;5.03;1.27;;;14.90;67.40;;;;;;4652308;30;20069;-73
2021/12/20 11:01:02;;;;;;;;;;;15.00;67.50;;;;;;4652712;30;20066;-74
2021/12/20 11:03:35;;;;;;;;;;;14.90;67.40;;;;;;4651884;30;20008;-73
2021/12/20 11:11:28;;;;;;;3.55;1.02;;;14.90;67.90;;;;;;4637022;30;20457;-73
2021/12/20 11:13:55;;;;;;;6.68;1.40;;;14.90;67.40;;;;;;4652366;30;20062;-73
2021/12/20 11:16:27;;;;;;;4.95;1.33;;;14.90;67.40;;;;;;4652622;30;20050;-74
2021/12/20 11:19:17;;;;;;;4.35;1.02;;;14.90;67.50;;;;;;4637439;30;20437;-73
2021/12/20 11:21:54;;;;;;;4.57;1.20;;;14.90;67.50;;;;;;4652419;30;20074;-74
2021/12/20 11:24:29;;;;;;;5.85;1.30;;;14.90;67.60;;;;;;4651975;30;20051;-75
2021/12/20 11:26:57;;;;;;;4.00;1.10;;;14.90;67.60;;;;;;4637847;30;20409;-75
2021/12/20 11:29:23;;;;;;;3.42;0.77;;;14.90;67.60;;;;;;4652351;30;20515;-74
2021/12/20 11:31:50;;;;;;;4.78;1.17;;;14.90;67.60;;;;;;4651990;30;20050;-75
2021/12/20 11:34:16;;;;;;;3.20;1.30;;;14.90;67.60;;;;;;4652401;30;20465;-74
2021/12/20 11:36:42;;;;;;;6.15;1.55;;;14.90;67.40;;;;;;4652011;30;20051;-74
2021/12/20 11:39:09;;;;;;;5.80;1.10;;;14.90;67.40;;;;;;4652083;30;20430;-74
2021/12/20 11:41:35;;;;;;;5.10;1.73;;;14.90;67.50;;;;;;4637274;30;20054;-73
2021/12/20 11:44:04;;;;;;;5.03;1.27;;;14.90;67.50;;;;;;4652218;30;20137;-74
2021/12/20 11:46:46;;;;;;;4.07;0.95;;;14.90;67.30;;;;;;4652148;30;20138;-74
2021/12/20 11:49:20;;;;;;;3.63;1.38;;;14.90;67.30;;;;;;4651454;30;20065;-76
2021/12/20 11:52:22;;;;;;;;;;;14.90;67.20;;;;;;4652461;30;20385;-74
2021/12/20 11:54:53;;;;;;;4.43;1.20;;;14.90;67.00;;;;;;4633012;31;20393;-74
2021/12/20 11:57:32;;;;;;;4.43;0.88;;;14.90;67.20;;;;;;4648451;30;20388;-76
2021/12/20 12:00:02;;;;;;;5.47;0.95;;;14.90;67.10;;;;;;4636587;30;20066;-75
2021/12/20 12:02:30;;;;;;;3.97;1.27;;;14.90;67.30;;;;;;4651234;30;20074;-74
2021/12/20 12:04:55;;;;;;;6.20;1.38;;;14.90;67.30;;;;;;4651346;30;20138;-74
2021/12/20 12:07:23;;;;;;;5.22;0.98;;;14.90;67.40;;;;;;4651618;30;20137;-74
2021/12/20 12:10:13;;;;;;;4.75;1.38;;;14.90;67.30;;;;;;4651641;30;20476;-75
2021/12/20 12:12:43;;;;;;;4.95;1.33;;;14.90;67.10;;;;;;4634738;30;20067;-74
2021/12/20 12:15:21;;;;;;;4.47;1.30;;;14.90;67.20;;;;;;4652079;30;20059;-76
2021/12/20 12:17:52;;;;;;;5.80;1.35;;;14.90;67.10;;;;;;4636393;30;20058;-74
2021/12/20 12:20:53;;;;;;;4.68;1.63;;;14.90;67.10;;;;;;4650301;30;20090;-75
2021/12/20 12:23:22;;;;;;;5.03;1.13;;;14.90;67.00;;;;;;4626907;30;20485;-75
2021/12/20 12:26:02;;;;;;;7.35;1.20;;;14.90;67.10;;;;;;4651298;30;20051;-75
2021/12/20 12:28:56;;;;;;;5.47;1.55;;;14.90;67.00;;;;;;4651174;30;20059;-73
2021/12/20 12:31:23;;;;;;;4.72;1.08;;;14.90;66.90;;;;;;4635916;30;20055;-73
2021/12/20 12:34:08;;;;;;;2.97;0.82;;;14.90;67.60;;;;;;4651053;30;20479;-76
2021/12/20 12:36:42;;;;;;;4.45;1.10;;;14.90;66.80;;;;;;4651375;30;20080;-76
2021/12/20 12:39:25;;;;;;;3.88;0.77;;;14.90;66.90;;;;;;4650655;30;20051;-74
2021/12/20 12:42:01;;;;;;;5.70;1.40;;;14.90;66.90;;;;;;4651275;30;20139;-73
2021/12/20 12:44:29;;;;;;;11.32;2.08;;;14.90;66.20;;;;;;4650385;30;20077;-74
2021/12/20 12:47:03;;;;;;;10.40;1.50;;;14.90;66.20;;;;;;4651234;30;20424;-75
2021/12/20 12:49:37;;;;;;;19.15;2.38;;;14.70;63.60;;;;;;4636460;30;20349;-73
2021/12/20 12:52:30;;;;;;;15.07;2.13;;;14.40;65.00;;;;;;4650884;30;20058;-75
2021/12/20 12:55:02;;;;;;;14.23;1.88;;;14.40;66.30;;;;;;4650505;30;20141;-74
2021/12/20 12:57:37;;;;;;;12.45;2.15;;;14.40;66.80;;;;;;4651018;30;20137;-74
2021/12/20 13:00:05;;;;;;;10.80;1.98;;;14.40;67.40;;;;;;4650427;30;20066;-74
2021/12/20 13:02:38;;;;;;;13.43;2.10;;;14.50;67.30;;;;;;4649816;30;20109;-75
2021/12/20 13:05:06;;;;;;;18.08;2.15;;;14.50;67.50;;;;;;4650200;30;20059;-75